Ana Sayfa
METAR-TAF:

METAR-TAF

Havaalanları :

Bingöl Havalimanı

Bingöl, Türkiye

Enlem: 38-51-40N, Boylam: 40-35-33E, yükseklik: 1063 m

Güncel hava durumu gözlemi

Rapor saat 08:50 UTC de 37 dakika önce yapıldı.
Rüzgar değişken yönden 1 kt
Sıcaklık 8°C
Nem 57%
Basınç 1024 hPa
Görüş mesafesi 10 km veya daha fazla
3500 ft yükseklikte az bulutlu

METAR: LTCU 190850Z VRB01KT 9999 FEW035 08/00 Q1024

Saat: 12:27 (09:27 UTC)

Tahmin

Rapor saat 07:40 UTC de 1 saat ve 47 dakika önce yapıldı.
Ayın 19'si saat 09 UTC'den ayın 19'si saat 18 UTC'ye kadar geçerli Tahmin
Rüzgar değişken yönden 2 kt
Görüş mesafesi 10 km veya daha fazla
3500 ft yükseklikte parçalı bulutlu
10000 ft yükseklikte parçalı çok bulutlu
Dönüşüyor
ayın 19'si saat 15 UTC'den ayın 19'si saat 17 UTC'ye kadar
Görüş mesafesi 10 km veya daha fazla
1500 m altında bulut yok ve kümülonimbus yok

TAF: LTCU 190740Z 1909/1918 VRB02KT 9999 SCT035 BKN100 BECMG 1915/1917 CAVOK

4.000'den fazla havaalanı için hava durumu gözlemleri ve tahminleri (METAR ve TAF raporları).

Kullanılabilir istasyonlar harita üzerinde sarı ve kırmızı noktalarla gösterilir.

İstasyonun adını görmek için fareyi noktanın üzerinde gezdirin.

Sonrasında hava gözlem ve tahminlerini görmek için tıklayın.

Haritayı değiştirmek için: yaklaştırmak için siyah artı işaretli yeşil düğmeye ve uzaklaştırmak için de eksi işaretli düğmeye hızla tıklayın; bitişik haritalar için yeşil okları kullanın.


METAR-TAF: